createdAt,value
2022-08-31T00:02:01.731Z,100254.72
2022-08-31T00:04:32.658Z,100263.47
2022-08-31T00:07:01.111Z,100262.19
2022-08-31T00:09:31.247Z,100268.19
2022-08-31T00:11:59.491Z,100270.31
2022-08-31T00:14:28.798Z,100269.19
2022-08-31T00:16:57.740Z,100261.94
2022-08-31T00:19:26.317Z,100262.78
2022-08-31T00:21:55.701Z,100266.91
2022-08-31T00:24:26.172Z,100256.16
2022-08-31T00:26:54.480Z,100263.09
2022-08-31T00:29:23.870Z,100269.00
2022-08-31T00:31:52.149Z,100266.50
2022-08-31T00:34:22.537Z,100270.00
2022-08-31T00:36:50.798Z,100272.13
2022-08-31T00:39:20.387Z,100269.16
2022-08-31T00:41:48.441Z,100261.03
2022-08-31T00:44:16.803Z,100263.97
2022-08-31T00:46:45.808Z,100262.31
2022-08-31T00:49:18.893Z,100262.19
2022-08-31T00:51:51.539Z,100260.00
2022-08-31T00:54:25.989Z,100258.81
2022-08-31T00:56:55.014Z,100257.06
2022-08-31T00:59:24.475Z,100255.03
2022-08-31T01:01:52.933Z,100258.38
2022-08-31T01:04:20.882Z,100257.75
2022-08-31T01:06:50.364Z,100253.81
2022-08-31T01:09:23.441Z,100253.31
2022-08-31T01:11:51.593Z,100247.56
2022-08-31T01:14:20.416Z,100248.88
2022-08-31T01:16:52.234Z,100250.56
2022-08-31T01:19:31.000Z,100255.81
2022-08-31T01:22:08.086Z,100254.16
2022-08-31T01:24:40.773Z,100259.09
2022-08-31T01:27:09.076Z,100256.47
2022-08-31T01:29:37.454Z,100259.53
2022-08-31T01:32:06.582Z,100260.50
2022-08-31T01:34:35.728Z,100263.63
2022-08-31T01:37:04.540Z,100262.38
2022-08-31T01:39:32.950Z,100257.31
2022-08-31T01:42:02.228Z,100266.50
2022-08-31T01:44:30.432Z,100260.44
2022-08-31T01:46:58.400Z,100269.00
2022-08-31T01:49:28.785Z,100268.94
2022-08-31T01:51:57.566Z,100280.69
2022-08-31T01:54:27.815Z,100301.34
2022-08-31T01:56:56.416Z,100302.97
2022-08-31T01:59:34.465Z,100299.41
2022-08-31T02:02:21.926Z,100295.13
2022-08-31T02:04:50.285Z,100285.06
2022-08-31T02:07:21.052Z,100287.81
2022-08-31T02:09:49.489Z,100282.06
2022-08-31T02:12:21.047Z,100278.28
2022-08-31T02:14:53.686Z,100277.84
2022-08-31T02:17:22.005Z,100283.38
2022-08-31T02:19:50.767Z,100283.81
2022-08-31T02:22:19.568Z,100283.63
2022-08-31T02:24:47.541Z,100289.00
2022-08-31T02:27:15.704Z,100287.97
2022-08-31T02:29:43.985Z,100288.72
2022-08-31T02:32:15.680Z,100286.59
2022-08-31T02:34:47.711Z,100288.75
2022-08-31T02:37:16.420Z,100284.19
2022-08-31T02:39:45.871Z,100287.81
2022-08-31T02:42:18.431Z,100289.06
2022-08-31T02:44:46.873Z,100286.28
2022-08-31T02:47:16.154Z,100291.78
2022-08-31T02:49:53.281Z,100283.59
2022-08-31T02:52:21.594Z,100288.06
2022-08-31T02:54:50.375Z,100296.38
2022-08-31T02:57:18.725Z,100290.47
2022-08-31T02:59:46.765Z,100284.47
2022-08-31T03:02:18.885Z,100273.88
2022-08-31T03:04:47.361Z,100276.06
2022-08-31T03:07:18.073Z,100275.50
2022-08-31T03:09:47.084Z,100282.34
2022-08-31T03:12:16.706Z,100279.50
2022-08-31T03:14:45.587Z,100286.97
2022-08-31T03:17:13.720Z,100288.84
2022-08-31T03:19:43.391Z,100284.06
2022-08-31T03:22:14.845Z,100287.66
2022-08-31T03:24:44.251Z,100285.38
2022-08-31T03:27:12.405Z,100287.88
2022-08-31T03:29:42.518Z,100297.81
2022-08-31T03:32:17.089Z,100296.56
2022-08-31T03:34:49.782Z,100297.81
2022-08-31T03:37:18.550Z,100293.28
2022-08-31T03:39:47.000Z,100294.06
2022-08-31T03:42:15.301Z,100303.78
2022-08-31T03:44:43.811Z,100298.59
2022-08-31T03:47:21.300Z,100304.13
2022-08-31T03:49:53.720Z,100297.69
2022-08-31T03:52:28.568Z,100302.66
2022-08-31T03:55:02.230Z,100305.69
2022-08-31T03:57:32.840Z,100309.19
2022-08-31T04:00:01.127Z,100308.97
2022-08-31T04:02:41.426Z,100316.44
2022-08-31T04:05:43.683Z,100320.91
2022-08-31T04:08:30.496Z,100328.25
2022-08-31T04:11:44.408Z,100333.91
2022-08-31T04:14:32.299Z,100324.03
2022-08-31T04:17:19.224Z,100335.19
2022-08-31T04:19:52.589Z,100330.44
2022-08-31T04:22:43.609Z,100336.75
2022-08-31T04:25:23.633Z,100333.00
2022-08-31T04:27:54.418Z,100336.06
2022-08-31T04:30:22.754Z,100337.56
2022-08-31T04:32:54.123Z,100339.84
2022-08-31T04:35:23.478Z,100340.28
2022-08-31T04:37:53.136Z,100350.72
2022-08-31T04:40:26.188Z,100351.06
2022-08-31T04:42:59.878Z,100353.38
2022-08-31T04:45:28.354Z,100358.34
2022-08-31T04:47:56.850Z,100357.88
2022-08-31T04:50:26.314Z,100361.50
2022-08-31T04:53:11.696Z,100368.69
2022-08-31T04:55:41.553Z,100366.38
2022-08-31T04:58:13.038Z,100369.19
2022-08-31T05:00:43.660Z,100368.38
2022-08-31T05:03:31.730Z,100375.88
2022-08-31T05:06:00.113Z,100361.63
2022-08-31T05:08:30.434Z,100369.13
2022-08-31T05:11:00.747Z,100366.50
2022-08-31T05:13:29.052Z,100378.28
2022-08-31T05:15:58.207Z,100373.13
2022-08-31T05:18:28.213Z,100368.53
2022-08-31T05:20:59.435Z,100375.81
2022-08-31T05:23:29.261Z,100370.91
2022-08-31T05:25:57.563Z,100372.72
2022-08-31T05:28:26.588Z,100371.31
2022-08-31T05:30:54.763Z,100375.53
2022-08-31T05:33:32.095Z,100373.41
2022-08-31T05:36:02.131Z,100373.66
2022-08-31T05:38:31.615Z,100381.03
2022-08-31T05:41:00.493Z,100374.97
2022-08-31T05:43:29.399Z,100376.16
2022-08-31T05:45:58.324Z,100390.06
2022-08-31T05:48:29.800Z,100381.34
2022-08-31T05:51:02.417Z,100379.00
2022-08-31T05:53:32.112Z,100380.59
2022-08-31T05:56:02.867Z,100382.75
2022-08-31T05:58:32.050Z,100394.03
2022-08-31T06:01:01.451Z,100391.63
2022-08-31T06:04:02.075Z,100393.47
2022-08-31T06:06:31.068Z,100397.28
2022-08-31T06:09:00.794Z,100401.00
2022-08-31T06:11:31.842Z,100393.44
2022-08-31T06:14:01.877Z,100403.63
2022-08-31T06:16:32.299Z,100400.97
2022-08-31T06:19:03.546Z,100404.44
2022-08-31T06:21:35.579Z,100398.31
2022-08-31T06:24:07.440Z,100398.84
2022-08-31T06:26:37.735Z,100409.63
2022-08-31T06:29:12.995Z,100407.63
2022-08-31T06:31:47.227Z,100412.34
2022-08-31T06:34:21.485Z,100424.09
2022-08-31T06:36:49.335Z,100418.41
2022-08-31T06:39:40.363Z,100423.69
2022-08-31T06:42:34.092Z,100427.19
2022-08-31T06:45:06.888Z,100424.44
2022-08-31T06:48:09.864Z,100427.28
2022-08-31T06:50:41.472Z,100435.16
2022-08-31T06:53:09.888Z,100438.88
2022-08-31T06:56:07.363Z,100429.91
2022-08-31T06:59:14.821Z,100438.94
2022-08-31T07:02:00.267Z,100447.78
2022-08-31T07:04:38.590Z,100435.72
2022-08-31T07:07:11.243Z,100445.94
2022-08-31T07:09:41.233Z,100448.59
2022-08-31T07:12:11.533Z,100451.72
2022-08-31T07:14:40.027Z,100456.09
2022-08-31T07:17:09.289Z,100463.31
2022-08-31T07:19:37.817Z,100462.63
2022-08-31T07:22:15.283Z,100457.09
2022-08-31T07:24:46.574Z,100465.81
2022-08-31T07:27:16.452Z,100472.81
2022-08-31T07:29:55.604Z,100472.81
2022-08-31T07:32:25.141Z,100472.38
2022-08-31T07:34:59.761Z,100464.97
2022-08-31T07:37:49.102Z,100476.34
2022-08-31T07:40:35.581Z,100478.44
2022-08-31T07:43:06.154Z,100475.47
2022-08-31T07:45:39.328Z,100476.19
2022-08-31T07:48:08.843Z,100482.13
2022-08-31T07:50:57.584Z,100482.16
2022-08-31T07:53:47.515Z,100488.16
2022-08-31T07:56:46.688Z,100485.91
2022-08-31T07:59:18.699Z,100488.97
2022-08-31T08:01:47.776Z,100491.09
2022-08-31T08:04:25.458Z,100485.44
2022-08-31T08:07:16.812Z,100490.91
2022-08-31T08:09:50.816Z,100490.38
2022-08-31T08:12:42.327Z,100494.72
2022-08-31T08:15:18.444Z,100500.88
2022-08-31T08:18:03.483Z,100494.88
2022-08-31T08:20:37.621Z,100503.50
2022-08-31T08:23:13.907Z,100501.25
2022-08-31T08:26:02.304Z,100497.94
2022-08-31T08:28:50.474Z,100508.41
2022-08-31T08:31:23.237Z,100506.47
2022-08-31T08:33:53.206Z,100509.09
2022-08-31T08:36:21.592Z,100510.38
2022-08-31T08:38:53.979Z,100512.91
2022-08-31T08:41:28.172Z,100510.66
2022-08-31T08:43:58.610Z,100509.59
2022-08-31T08:46:40.393Z,100512.78
2022-08-31T08:49:19.353Z,100514.75
2022-08-31T08:51:58.670Z,100515.72
2022-08-31T08:54:32.890Z,100513.97
2022-08-31T08:57:16.636Z,100522.28
2022-08-31T08:59:49.118Z,100524.00
2022-08-31T09:02:25.083Z,100521.63
2022-08-31T09:05:15.526Z,100522.75
2022-08-31T09:08:29.209Z,100518.69
2022-08-31T09:11:12.431Z,100528.56
2022-08-31T09:13:53.467Z,100526.75
2022-08-31T09:16:40.862Z,100522.53
2022-08-31T09:19:15.554Z,100527.53
2022-08-31T09:21:48.289Z,100527.34
2022-08-31T09:24:19.437Z,100521.06
2022-08-31T09:27:18.200Z,100523.88
2022-08-31T09:29:48.314Z,100520.50
2022-08-31T09:32:26.222Z,100520.50
2022-08-31T09:35:00.466Z,100520.56
2022-08-31T09:37:34.229Z,100525.19
2022-08-31T09:40:16.813Z,100521.84
2022-08-31T09:43:04.278Z,100514.38
2022-08-31T09:45:41.941Z,100511.63
2022-08-31T09:48:11.215Z,100511.06
2022-08-31T09:50:45.370Z,100509.84
2022-08-31T09:53:37.889Z,100511.03
2022-08-31T09:56:15.689Z,100514.47
2022-08-31T09:58:46.946Z,100514.66
2022-08-31T10:01:21.380Z,100506.41
2022-08-31T10:03:50.818Z,100497.53
2022-08-31T10:06:45.677Z,100513.16
2022-08-31T10:09:33.490Z,100498.47
2022-08-31T10:12:05.683Z,100497.75
2022-08-31T10:14:41.403Z,100502.47
2022-08-31T10:17:15.347Z,100503.38
2022-08-31T10:19:53.440Z,100497.84
2022-08-31T10:22:32.592Z,100501.50
2022-08-31T11:17:27.403Z,100508.16
2022-08-31T11:20:06.396Z,100511.81
2022-08-31T11:22:52.413Z,100521.16
2022-08-31T11:25:47.424Z,100519.84
2022-08-31T11:28:32.287Z,100520.41
2022-08-31T11:31:02.667Z,100524.00
2022-08-31T11:33:32.375Z,100524.13
2022-08-31T11:36:07.270Z,100520.91
2022-08-31T11:38:53.542Z,100516.88
2022-08-31T11:41:39.330Z,100526.66
2022-08-31T11:44:09.591Z,100526.03
2022-08-31T11:46:50.719Z,100524.16
2022-08-31T11:49:43.871Z,100515.16
2022-08-31T11:52:35.222Z,100514.84
2022-08-31T11:55:21.182Z,100504.06
2022-08-31T11:58:31.709Z,100505.44
2022-08-31T12:01:03.720Z,100508.53
2022-08-31T12:03:40.708Z,100496.22
2022-08-31T12:06:13.664Z,100500.16
2022-08-31T12:08:53.076Z,100496.06
2022-08-31T12:11:37.234Z,100490.31
2022-08-31T12:14:15.963Z,100497.97
2022-08-31T12:16:57.310Z,100490.34
2022-08-31T12:20:01.754Z,100498.75
2022-08-31T12:23:29.994Z,100507.09
2022-08-31T12:26:11.140Z,100510.66
2022-08-31T12:29:01.957Z,100510.81
2022-08-31T12:31:30.516Z,100497.69
2022-08-31T12:34:04.883Z,100497.19
2022-08-31T12:36:37.041Z,100480.75
2022-08-31T12:39:12.821Z,100480.28
2022-08-31T12:41:51.972Z,100473.22
2022-08-31T12:44:22.760Z,100473.50
2022-08-31T12:47:02.652Z,100481.63
2022-08-31T12:49:54.445Z,100474.03
2022-08-31T12:52:40.385Z,100463.78
2022-08-31T12:55:23.421Z,100464.66
2022-08-31T12:58:07.160Z,100481.03
2022-08-31T13:00:38.780Z,100492.75
2022-08-31T13:03:22.090Z,100484.13
2022-08-31T13:06:05.801Z,100498.31
2022-08-31T13:08:39.257Z,100489.97
2022-08-31T13:11:25.813Z,100487.09
2022-08-31T13:14:14.068Z,100474.22
2022-08-31T13:16:45.303Z,100438.69
2022-08-31T13:19:25.903Z,100429.63
2022-08-31T13:21:57.864Z,100438.69
2022-08-31T13:24:30.905Z,100428.38
2022-08-31T13:27:08.589Z,100429.59
2022-08-31T13:29:44.144Z,100423.00
2022-08-31T13:32:16.040Z,100416.53
2022-08-31T13:34:43.951Z,100416.25
2022-08-31T13:37:19.002Z,100405.00
2022-08-31T13:39:50.479Z,100407.91
2022-08-31T13:42:35.521Z,100402.59
2022-08-31T13:45:09.372Z,100402.41
2022-08-31T13:47:55.261Z,100414.31
2022-08-31T13:50:32.934Z,100404.31
2022-08-31T13:53:26.248Z,100404.44
2022-08-31T13:55:53.031Z,100405.47
2022-08-31T13:58:29.081Z,100399.94
2022-08-31T14:01:22.994Z,100401.78
2022-08-31T14:03:57.424Z,100402.94
2022-08-31T14:06:32.953Z,100394.81
2022-08-31T14:09:05.870Z,100392.91
2022-08-31T14:11:35.624Z,100392.94
2022-08-31T14:14:08.753Z,100395.69
2022-08-31T14:16:43.773Z,100392.63
2022-08-31T14:19:31.081Z,100406.44
2022-08-31T14:22:16.281Z,100398.44
2022-08-31T14:24:45.882Z,100405.28
2022-08-31T14:27:15.329Z,100399.81
2022-08-31T14:29:44.812Z,100396.34
2022-08-31T14:32:18.594Z,100397.50
2022-08-31T14:34:49.072Z,100391.31
2022-08-31T14:37:22.556Z,100387.38
2022-08-31T14:39:53.764Z,100380.75
2022-08-31T14:42:25.682Z,100387.44
2022-08-31T14:45:01.054Z,100385.25
2022-08-31T14:47:31.650Z,100380.56
2022-08-31T14:50:05.434Z,100381.38
2022-08-31T14:52:34.686Z,100370.91
2022-08-31T14:55:03.128Z,100372.50
2022-08-31T14:57:34.434Z,100375.59
2022-08-31T15:00:07.077Z,100367.44
2022-08-31T15:02:36.182Z,100374.56
2022-08-31T15:05:08.187Z,100374.47
2022-08-31T15:07:39.374Z,100372.53
2022-08-31T15:10:11.875Z,100376.00
2022-08-31T15:12:39.921Z,100371.06
2022-08-31T15:15:10.984Z,100366.84
2022-08-31T15:17:40.246Z,100365.75
2022-08-31T15:20:11.348Z,100370.44
2022-08-31T15:22:40.748Z,100372.59
2022-08-31T15:25:11.934Z,100370.19
2022-08-31T15:27:44.469Z,100377.56
2022-08-31T15:30:16.266Z,100369.56
2022-08-31T15:32:45.354Z,100374.97
2022-08-31T15:35:18.825Z,100371.09
2022-08-31T15:37:56.536Z,100376.53
2022-08-31T15:40:27.955Z,100375.16
2022-08-31T15:42:59.750Z,100369.03
2022-08-31T15:45:31.119Z,100366.56
2022-08-31T15:48:17.264Z,100366.16
2022-08-31T15:50:52.665Z,100368.31
2022-08-31T15:53:25.501Z,100360.84
2022-08-31T15:55:53.443Z,100357.47
2022-08-31T15:58:24.819Z,100356.59
2022-08-31T16:00:54.470Z,100355.22
2022-08-31T16:03:22.719Z,100351.91
2022-08-31T16:05:51.244Z,100352.59
2022-08-31T16:08:19.446Z,100349.09
2022-08-31T16:10:48.431Z,100353.84
2022-08-31T16:13:17.026Z,100352.34
2022-08-31T16:15:51.284Z,100337.19
2022-08-31T16:18:22.216Z,100340.00
2022-08-31T16:20:51.807Z,100339.22
2022-08-31T16:23:21.222Z,100338.84
2022-08-31T16:25:49.560Z,100333.00
2022-08-31T16:28:19.900Z,100324.41
2022-08-31T16:30:48.606Z,100328.28
2022-08-31T16:33:20.618Z,100326.50
2022-08-31T16:35:48.743Z,100328.28
2022-08-31T16:38:16.959Z,100327.22
2022-08-31T16:40:45.485Z,100328.06
2022-08-31T16:43:14.267Z,100318.69
2022-08-31T16:45:42.917Z,100319.66
2022-08-31T16:48:29.840Z,100328.19
2022-08-31T16:51:02.781Z,100320.47
2022-08-31T16:53:31.967Z,100321.81
2022-08-31T16:56:00.216Z,100330.28
2022-08-31T16:58:50.520Z,100324.44
2022-08-31T17:01:20.934Z,100318.09
2022-08-31T17:03:52.616Z,100322.09
2022-08-31T17:06:22.306Z,100324.47
2022-08-31T17:08:54.569Z,100322.31
2022-08-31T17:11:25.347Z,100321.88
2022-08-31T17:13:58.489Z,100314.75
2022-08-31T17:16:29.454Z,100317.47
2022-08-31T17:19:00.239Z,100317.03
2022-08-31T17:21:32.630Z,100316.94
2022-08-31T17:24:03.610Z,100320.69
2022-08-31T17:26:35.122Z,100326.19
2022-08-31T17:29:09.659Z,100333.34
2022-08-31T17:31:42.426Z,100328.78
2022-08-31T17:34:12.631Z,100336.19
2022-08-31T17:36:43.471Z,100331.59
2022-08-31T17:39:12.224Z,100336.53
2022-08-31T17:41:42.759Z,100339.19
2022-08-31T17:44:18.552Z,100337.56
2022-08-31T17:46:49.739Z,100342.72
2022-08-31T17:49:20.298Z,100344.66
2022-08-31T17:51:50.988Z,100347.59
2022-08-31T17:54:22.076Z,100341.88
2022-08-31T17:56:53.537Z,100343.34
2022-08-31T17:59:25.286Z,100347.66
2022-08-31T18:01:56.019Z,100347.94
2022-08-31T18:04:26.409Z,100356.47
2022-08-31T18:06:57.293Z,100355.31
2022-08-31T18:09:27.768Z,100356.19
2022-08-31T18:11:56.667Z,100359.31
2022-08-31T18:14:28.087Z,100364.59
2022-08-31T18:16:59.977Z,100364.13
2022-08-31T18:19:32.777Z,100369.88
2022-08-31T18:22:03.991Z,100370.06
2022-08-31T18:24:35.597Z,100381.78
2022-08-31T18:27:07.224Z,100383.91
2022-08-31T18:29:36.107Z,100383.06
2022-08-31T18:32:08.859Z,100392.84
2022-08-31T18:34:40.292Z,100387.81
2022-08-31T18:37:11.048Z,100392.88
2022-08-31T18:39:54.096Z,100405.06
2022-08-31T18:42:42.777Z,100399.66
2022-08-31T18:45:19.895Z,100390.06
2022-08-31T18:50:44.938Z,100406.13
2022-08-31T18:53:29.574Z,100395.50
2022-08-31T18:56:00.643Z,100405.91
2022-08-31T18:58:30.402Z,100404.00
2022-08-31T19:01:00.320Z,100414.16
2022-08-31T19:03:29.663Z,100410.78
2022-08-31T19:06:01.421Z,100406.84
2022-08-31T19:08:32.043Z,100414.22
2022-08-31T19:11:01.208Z,100412.44
2022-08-31T19:13:31.399Z,100414.00
2022-08-31T19:16:03.815Z,100414.31
2022-08-31T19:18:36.604Z,100406.88
2022-08-31T19:21:15.421Z,100418.84
2022-08-31T19:23:45.892Z,100421.34
2022-08-31T19:26:23.580Z,100409.22
2022-08-31T19:28:52.017Z,100409.38
2022-08-31T19:31:23.165Z,100413.69
2022-08-31T19:33:56.465Z,100415.00
2022-08-31T19:36:24.728Z,100412.50
2022-08-31T19:38:56.405Z,100419.44
2022-08-31T19:41:28.107Z,100414.78
2022-08-31T19:44:07.626Z,100421.53
2022-08-31T19:46:39.303Z,100426.03
2022-08-31T19:49:11.171Z,100425.31
2022-08-31T19:51:42.183Z,100416.09
2022-08-31T19:54:13.149Z,100418.31
2022-08-31T19:56:42.986Z,100412.19
2022-08-31T19:59:13.380Z,100411.97
2022-08-31T20:01:43.974Z,100412.88
2022-08-31T20:04:16.640Z,100421.72
2022-08-31T20:06:46.242Z,100415.25
2022-08-31T20:09:16.397Z,100416.75
2022-08-31T20:11:47.736Z,100420.28
2022-08-31T20:14:16.806Z,100413.22
2022-08-31T20:16:46.643Z,100411.78
2022-08-31T20:19:21.091Z,100412.19
2022-08-31T20:21:53.977Z,100413.91
2022-08-31T20:24:26.808Z,100413.38
2022-08-31T20:27:09.012Z,100411.59
2022-08-31T20:29:38.873Z,100414.78
2022-08-31T20:32:08.054Z,100409.41
2022-08-31T20:34:38.381Z,100410.34
2022-08-31T20:37:07.805Z,100418.09
2022-08-31T20:39:37.324Z,100422.81
2022-08-31T20:42:07.204Z,100419.66
2022-08-31T20:44:37.751Z,100420.63
2022-08-31T20:47:25.573Z,100432.94
2022-08-31T20:49:58.652Z,100420.56
2022-08-31T20:52:29.384Z,100422.72
2022-08-31T20:55:02.471Z,100412.13
2022-08-31T20:57:32.823Z,100418.47
2022-08-31T21:00:05.081Z,100423.91
2022-08-31T21:02:34.833Z,100417.63
2022-08-31T21:05:33.892Z,100424.50
2022-08-31T21:07:52.341Z,100433.31
2022-08-31T21:10:36.115Z,100426.03
2022-08-31T21:13:09.158Z,100434.19
2022-08-31T21:15:41.963Z,100433.88
2022-08-31T21:18:10.273Z,100429.47
2022-08-31T21:20:38.592Z,100430.72
2022-08-31T21:23:12.821Z,100430.88
2022-08-31T21:25:45.887Z,100434.19
2022-08-31T21:28:17.435Z,100423.00
2022-08-31T21:30:49.196Z,100426.69
2022-08-31T21:33:17.521Z,100433.09
2022-08-31T21:35:45.578Z,100431.94
2022-08-31T21:38:13.754Z,100426.13
2022-08-31T21:40:49.923Z,100429.44
2022-08-31T21:43:18.515Z,100429.72
2022-08-31T21:45:46.610Z,100427.50
2022-08-31T21:48:14.880Z,100435.84
2022-08-31T21:50:43.881Z,100427.25
2022-08-31T21:53:12.966Z,100431.84
2022-08-31T21:55:40.927Z,100433.94
2022-08-31T21:58:10.918Z,100439.13
2022-08-31T22:00:42.116Z,100433.16
2022-08-31T22:03:10.422Z,100431.84
2022-08-31T22:05:41.739Z,100430.44
2022-08-31T22:08:10.340Z,100434.88
2022-08-31T22:10:41.005Z,100431.56
2022-08-31T22:13:12.547Z,100430.19
2022-08-31T22:15:42.664Z,100441.25
2022-08-31T22:18:58.313Z,100440.00
2022-08-31T22:20:59.814Z,100440.25
2022-08-31T22:23:28.502Z,100438.97
2022-08-31T22:25:57.128Z,100441.72
2022-08-31T22:28:27.765Z,100440.50
2022-08-31T22:30:56.244Z,100443.09
2022-08-31T22:33:24.213Z,100433.53
2022-08-31T22:35:52.284Z,100445.97
2022-08-31T22:38:20.357Z,100443.44
2022-08-31T22:40:50.077Z,100445.41
2022-08-31T22:43:18.843Z,100434.72
2022-08-31T22:45:49.102Z,100440.22
2022-08-31T22:48:17.256Z,100439.13
2022-08-31T22:50:45.619Z,100444.19
2022-08-31T22:53:14.267Z,100438.75
2022-08-31T22:55:43.212Z,100448.47
2022-08-31T22:58:12.589Z,100447.31
2022-08-31T23:00:41.130Z,100439.03
2022-08-31T23:03:13.594Z,100437.13
2022-08-31T23:05:43.622Z,100444.28
2022-08-31T23:08:12.489Z,100440.59
2022-08-31T23:10:41.102Z,100435.00
2022-08-31T23:13:09.172Z,100439.09
2022-08-31T23:15:38.397Z,100440.44
2022-08-31T23:18:09.838Z,100439.72
2022-08-31T23:20:41.942Z,100437.63
2022-08-31T23:23:11.039Z,100436.09
2022-08-31T23:25:40.460Z,100431.53
2022-08-31T23:28:08.767Z,100432.63
2022-08-31T23:30:40.331Z,100435.63
2022-08-31T23:33:09.885Z,100430.41
2022-08-31T23:35:40.985Z,100432.94
2022-08-31T23:38:10.687Z,100433.75
2022-08-31T23:40:38.862Z,100426.84
2022-08-31T23:43:11.020Z,100430.56
2022-08-31T23:45:41.112Z,100425.00
2022-08-31T23:48:09.640Z,100430.34
2022-08-31T23:50:38.889Z,100433.22
2022-08-31T23:53:11.872Z,100421.22
2022-08-31T23:55:43.718Z,100420.53
2022-08-31T23:58:14.216Z,100424.09
